Charlottesville (CHO/KCHO)

Map

Destinations

Information

Location
Charlottesville, VA
Local Time
06:32 / 6:32 am
GMT Time
10:32 / 10:32 am
Gates
Unassigned
No FAA reported delays
METAR KCHO 210953Z 22003KT 10SM CLR 25/20 A2996 RMK AO2 SLP136 T02500200
TAF KCHO 210537Z 2106/2206 VRB03KT P6SM FEW250 FM211200 VRB03KT P6SM FEW050 FM212000 24005KT P6SM BKN050 FM220000 VRB03KT P6SM SCT050